createdAt,value
2023-04-07T00:00:59.889Z,53.85
2023-04-07T00:03:29.301Z,54.97
2023-04-07T00:05:58.456Z,54.42
2023-04-07T00:08:27.603Z,54.30
2023-04-07T00:10:56.583Z,55.80
2023-04-07T00:13:25.653Z,57.50
2023-04-07T00:15:55.042Z,60.50
2023-04-07T00:18:23.981Z,60.28
2023-04-07T00:20:53.196Z,58.85
2023-04-07T00:23:22.668Z,63.97
2023-04-07T00:25:51.913Z,63.75
2023-04-07T00:28:20.966Z,61.58
2023-04-07T00:30:50.001Z,61.03
2023-04-07T00:33:19.107Z,60.80
2023-04-07T00:35:48.125Z,57.63
2023-04-07T00:38:17.524Z,56.67
2023-04-07T00:40:46.540Z,55.03
2023-04-07T00:43:15.487Z,54.33
2023-04-07T00:45:45.036Z,52.42
2023-04-07T00:48:14.086Z,55.42
2023-04-07T00:50:50.945Z,48.95
2023-04-07T00:53:51.154Z,50.00
2023-04-07T00:56:20.237Z,49.60
2023-04-07T00:58:49.220Z,47.97
2023-04-07T01:01:24.248Z,45.28
2023-04-07T01:04:24.547Z,47.22
2023-04-07T01:07:02.233Z,44.30
2023-04-07T01:09:41.738Z,42.92
2023-04-07T01:12:22.977Z,45.20
2023-04-07T01:15:01.011Z,45.35
2023-04-07T01:17:36.476Z,45.63
2023-04-07T01:20:10.167Z,44.35
2023-04-07T01:22:55.034Z,43.25
2023-04-07T01:26:09.725Z,41.83
2023-04-07T01:29:15.732Z,42.42
2023-04-07T01:31:45.930Z,43.08
2023-04-07T01:34:17.807Z,43.08
2023-04-07T01:36:48.591Z,44.53
2023-04-07T01:39:18.178Z,45.53
2023-04-07T01:41:47.827Z,46.30
2023-04-07T01:44:17.589Z,42.88
2023-04-07T01:46:46.809Z,44.55
2023-04-07T01:49:16.775Z,43.88
2023-04-07T01:51:46.492Z,45.40
2023-04-07T01:54:15.556Z,45.80
2023-04-07T01:56:45.043Z,45.72
2023-04-07T01:59:14.278Z,44.78
2023-04-07T02:01:43.690Z,42.33
2023-04-07T02:04:38.693Z,45.85
2023-04-07T02:07:17.611Z,44.78
2023-04-07T02:09:48.664Z,42.78
2023-04-07T02:12:19.234Z,44.70
2023-04-07T02:14:49.202Z,43.72
2023-04-07T02:17:20.412Z,43.35
2023-04-07T02:19:50.664Z,44.65
2023-04-07T02:22:20.765Z,43.10
2023-04-07T02:24:49.864Z,42.72
2023-04-07T02:27:19.986Z,41.83
2023-04-07T02:29:48.975Z,43.45
2023-04-07T02:32:19.188Z,42.13
2023-04-07T02:34:49.469Z,41.72
2023-04-07T02:37:18.634Z,42.53
2023-04-07T02:39:47.658Z,41.25
2023-04-07T02:42:16.667Z,43.28
2023-04-07T02:44:46.143Z,40.65
2023-04-07T02:47:15.706Z,41.45
2023-04-07T02:49:45.129Z,40.60
2023-04-07T02:52:15.215Z,42.42
2023-04-07T02:54:44.341Z,41.78
2023-04-07T02:57:15.046Z,41.20
2023-04-07T02:59:44.308Z,39.72
2023-04-07T03:02:13.745Z,39.28
2023-04-07T03:04:44.059Z,40.42
2023-04-07T03:07:13.000Z,37.10
2023-04-07T03:09:42.212Z,39.90
2023-04-07T03:12:11.492Z,39.22
2023-04-07T03:14:40.414Z,40.67
2023-04-07T03:17:10.449Z,39.60
2023-04-07T03:19:39.434Z,38.53
2023-04-07T03:22:08.553Z,38.30
2023-04-07T03:24:37.646Z,41.40
2023-04-07T03:27:06.846Z,39.00
2023-04-07T03:29:36.093Z,40.58
2023-04-07T03:32:05.268Z,40.10
2023-04-07T03:34:34.622Z,40.28
2023-04-07T03:37:03.592Z,41.15
2023-04-07T03:39:32.933Z,41.42
2023-04-07T03:42:02.288Z,38.22
2023-04-07T03:44:31.321Z,38.85
2023-04-07T03:47:00.680Z,40.53
2023-04-07T03:49:29.693Z,39.58
2023-04-07T03:51:58.909Z,40.63
2023-04-07T03:54:27.885Z,41.50
2023-04-07T03:56:58.534Z,41.20
2023-04-07T03:59:27.638Z,41.50
2023-04-07T04:01:56.985Z,41.08
2023-04-07T04:04:26.138Z,43.85
2023-04-07T04:06:55.192Z,40.17
2023-04-07T04:09:24.207Z,44.28
2023-04-07T04:11:53.108Z,42.35
2023-04-07T04:14:22.205Z,42.22
2023-04-07T04:16:54.056Z,44.28
2023-04-07T04:19:23.014Z,43.35
2023-04-07T04:21:52.478Z,43.03
2023-04-07T04:24:21.454Z,41.28
2023-04-07T04:26:50.404Z,40.90
2023-04-07T04:29:19.311Z,41.10
2023-04-07T04:31:48.618Z,41.13
2023-04-07T04:34:18.695Z,40.47
2023-04-07T04:36:47.895Z,41.25
2023-04-07T04:39:17.298Z,41.50
2023-04-07T04:41:47.389Z,44.28
2023-04-07T04:44:16.660Z,42.15
2023-04-07T04:46:45.852Z,42.58
2023-04-07T04:49:15.884Z,42.30
2023-04-07T04:51:44.841Z,43.15
2023-04-07T04:54:14.110Z,43.22
2023-04-07T04:56:43.973Z,42.60
2023-04-07T04:59:13.131Z,43.50
2023-04-07T05:01:42.512Z,43.35
2023-04-07T05:04:11.802Z,43.47
2023-04-07T05:06:40.895Z,43.05
2023-04-07T05:09:10.111Z,44.03
2023-04-07T05:11:39.067Z,43.78
2023-04-07T05:14:08.003Z,44.97
2023-04-07T05:16:37.924Z,42.38
2023-04-07T05:19:07.586Z,42.42
2023-04-07T05:21:36.667Z,42.92
2023-04-07T05:24:08.076Z,45.25
2023-04-07T05:26:38.115Z,45.03
2023-04-07T05:29:09.796Z,42.88
2023-04-07T05:31:38.792Z,44.17
2023-04-07T05:34:07.927Z,42.13
2023-04-07T05:36:37.709Z,44.47
2023-04-07T05:39:06.817Z,43.08
2023-04-07T05:41:35.809Z,41.88
2023-04-07T05:44:04.837Z,42.13
2023-04-07T05:46:33.802Z,42.30
2023-04-07T05:49:13.279Z,42.40
2023-04-07T05:51:49.317Z,42.15
2023-04-07T05:54:18.639Z,45.15
2023-04-07T05:56:47.914Z,42.50
2023-04-07T05:59:17.080Z,44.20
2023-04-07T06:01:46.318Z,41.45
2023-04-07T06:04:15.351Z,43.22
2023-04-07T06:06:44.329Z,44.20
2023-04-07T06:09:16.721Z,42.47
2023-04-07T06:11:48.561Z,41.53
2023-04-07T06:14:19.144Z,40.13
2023-04-07T06:16:48.334Z,39.80
2023-04-07T06:19:17.447Z,38.35
2023-04-07T06:21:48.500Z,38.72
2023-04-07T06:24:17.634Z,38.72
2023-04-07T06:26:47.853Z,37.75
2023-04-07T06:29:17.451Z,36.90
2023-04-07T06:31:46.725Z,35.47
2023-04-07T06:34:15.998Z,37.78
2023-04-07T06:36:46.014Z,37.45
2023-04-07T06:39:16.035Z,39.85
2023-04-07T06:41:45.010Z,39.38
2023-04-07T06:44:14.226Z,38.30
2023-04-07T06:46:43.462Z,38.35
2023-04-07T06:49:13.218Z,36.40
2023-04-07T06:51:42.672Z,37.30
2023-04-07T06:54:15.076Z,38.67
2023-04-07T06:56:45.202Z,38.50
2023-04-07T06:59:14.374Z,35.67
2023-04-07T07:01:48.022Z,36.33
2023-04-07T07:04:22.992Z,37.15
2023-04-07T07:06:52.042Z,37.15
2023-04-07T07:09:21.114Z,38.50
2023-04-07T07:11:50.098Z,35.92
2023-04-07T07:14:19.193Z,35.25
2023-04-07T07:16:48.151Z,36.72
2023-04-07T07:19:17.494Z,35.83
2023-04-07T07:21:50.101Z,36.42
2023-04-07T07:24:19.039Z,38.65
2023-04-07T07:26:47.970Z,37.63
2023-04-07T07:29:17.257Z,38.10
2023-04-07T07:31:46.216Z,39.40
2023-04-07T07:34:17.077Z,36.70
2023-04-07T07:36:46.115Z,37.80
2023-04-07T07:39:15.499Z,35.63
2023-04-07T07:41:48.002Z,36.38
2023-04-07T07:44:19.438Z,35.77
2023-04-07T07:46:48.662Z,36.88
2023-04-07T07:49:23.998Z,35.53
2023-04-07T07:51:55.784Z,35.55
2023-04-07T07:54:24.775Z,33.65
2023-04-07T07:56:54.139Z,34.60
2023-04-07T07:59:23.129Z,34.20
2023-04-07T08:01:52.360Z,26.67
2023-04-07T08:04:24.715Z,26.20
2023-04-07T08:06:54.469Z,24.93
2023-04-07T08:09:23.599Z,35.38
2023-04-07T08:11:52.700Z,37.85
2023-04-07T08:14:24.486Z,33.83
2023-04-07T08:16:53.524Z,33.90
2023-04-07T08:19:22.657Z,32.97
2023-04-07T08:21:51.634Z,35.38
2023-04-07T08:24:21.533Z,35.30
2023-04-07T08:26:50.552Z,36.15
2023-04-07T08:29:19.589Z,34.70
2023-04-07T08:31:48.842Z,36.00
2023-04-07T08:34:17.839Z,34.65
2023-04-07T08:36:46.780Z,35.13
2023-04-07T08:39:15.741Z,35.15
2023-04-07T08:41:46.526Z,35.22
2023-04-07T08:44:17.051Z,34.35
2023-04-07T08:46:46.408Z,33.50
2023-04-07T08:49:16.251Z,34.20
2023-04-07T08:51:51.859Z,33.25
2023-04-07T08:54:23.300Z,32.13
2023-04-07T08:56:52.907Z,30.95
2023-04-07T08:59:27.856Z,32.05
2023-04-07T09:01:57.661Z,31.58
2023-04-07T09:04:28.721Z,34.42
2023-04-07T09:06:57.788Z,32.70
2023-04-07T09:09:26.895Z,31.67
2023-04-07T09:11:56.007Z,35.17
2023-04-07T09:14:25.129Z,32.42
2023-04-07T09:16:58.759Z,34.17
2023-04-07T09:19:32.061Z,33.28
2023-04-07T09:22:01.272Z,32.50
2023-04-07T09:24:33.385Z,34.03
2023-04-07T09:27:17.370Z,33.38
2023-04-07T09:29:50.095Z,35.08
2023-04-07T09:32:45.727Z,37.05
2023-04-07T09:35:14.819Z,35.15
2023-04-07T09:37:43.942Z,34.35
2023-04-07T09:40:13.458Z,33.25
2023-04-07T09:42:49.514Z,32.40
2023-04-07T09:48:01.706Z,35.47
2023-04-07T09:50:42.260Z,34.70
2023-04-07T09:53:11.327Z,34.50
2023-04-07T09:55:45.104Z,34.50
2023-04-07T09:58:22.771Z,32.85
2023-04-07T10:00:59.301Z,31.67
2023-04-07T10:03:30.464Z,31.75
2023-04-07T10:06:07.777Z,31.50
2023-04-07T10:08:39.103Z,31.80
2023-04-07T10:11:08.477Z,34.78
2023-04-07T10:13:41.273Z,32.13
2023-04-07T10:16:11.016Z,33.40
2023-04-07T10:18:48.200Z,31.95
2023-04-07T10:21:19.515Z,30.10
2023-04-07T10:24:01.178Z,34.35
2023-04-07T10:26:34.422Z,30.27
2023-04-07T10:31:36.491Z,30.65
2023-04-07T10:34:18.335Z,31.30
2023-04-07T10:37:18.888Z,32.55
2023-04-07T10:39:48.303Z,32.83
2023-04-07T10:42:38.788Z,33.67
2023-04-07T10:45:10.090Z,33.45
2023-04-07T10:48:01.877Z,35.90
2023-04-07T10:50:34.020Z,32.03
2023-04-07T10:53:16.755Z,32.60
2023-04-07T10:55:46.949Z,34.43
2023-04-07T10:58:26.642Z,32.63
2023-04-07T11:01:10.814Z,33.15
2023-04-07T11:03:57.452Z,32.88
2023-04-07T11:06:28.436Z,33.45
2023-04-07T11:08:57.661Z,32.10
2023-04-07T11:11:41.237Z,33.13
2023-04-07T11:16:41.729Z,31.92
2023-04-07T11:19:11.386Z,33.97
2023-04-07T11:21:40.585Z,32.35
2023-04-07T11:24:09.618Z,33.58
2023-04-07T11:26:42.884Z,34.10
2023-04-07T11:29:13.249Z,32.40
2023-04-07T11:31:42.702Z,32.33
2023-04-07T11:34:13.245Z,32.65
2023-04-07T11:36:43.592Z,32.33
2023-04-07T11:39:23.465Z,33.75
2023-04-07T11:41:53.221Z,31.20
2023-04-07T11:44:22.448Z,32.55
2023-04-07T11:46:56.109Z,34.60
2023-04-07T11:49:26.304Z,32.22
2023-04-07T11:52:04.273Z,34.58
2023-04-07T11:54:49.327Z,35.30
2023-04-07T11:57:29.522Z,37.78
2023-04-07T12:00:12.852Z,37.90
2023-04-07T12:02:42.973Z,37.63
2023-04-07T12:05:12.382Z,38.67
2023-04-07T12:07:43.205Z,38.47
2023-04-07T12:10:22.902Z,38.10
2023-04-07T12:12:52.749Z,41.13
2023-04-07T12:15:21.913Z,39.00
2023-04-07T12:17:51.323Z,38.58
2023-04-07T12:20:20.459Z,41.60
2023-04-07T12:22:49.463Z,38.05
2023-04-07T12:25:18.431Z,37.58
2023-04-07T12:27:47.948Z,35.80
2023-04-07T12:30:16.891Z,38.97
2023-04-07T12:32:45.917Z,37.85
2023-04-07T12:35:14.887Z,37.83
2023-04-07T12:37:43.914Z,38.22
2023-04-07T12:40:13.506Z,35.70
2023-04-07T12:42:42.638Z,33.67
2023-04-07T12:45:12.063Z,35.88
2023-04-07T12:47:41.060Z,34.97
2023-04-07T12:50:10.145Z,36.53
2023-04-07T12:52:39.458Z,35.90
2023-04-07T12:55:08.965Z,34.90
2023-04-07T12:57:38.698Z,36.30
2023-04-07T13:00:08.265Z,34.65
2023-04-07T13:02:40.549Z,33.97
2023-04-07T13:05:09.803Z,32.95
2023-04-07T13:07:39.120Z,29.42
2023-04-07T13:10:09.494Z,32.47
2023-04-07T13:12:38.801Z,31.02
2023-04-07T13:15:10.944Z,31.45
2023-04-07T13:17:43.431Z,28.35
2023-04-07T13:20:12.642Z,31.02
2023-04-07T13:22:49.271Z,31.08
2023-04-07T13:25:20.945Z,30.40
2023-04-07T13:27:49.936Z,31.70
2023-04-07T13:30:21.535Z,31.50
2023-04-07T13:32:51.855Z,30.63
2023-04-07T13:35:20.967Z,29.85
2023-04-07T13:37:49.992Z,29.33
2023-04-07T13:40:19.011Z,30.95
2023-04-07T13:42:48.414Z,29.58
2023-04-07T13:45:17.499Z,28.95
2023-04-07T13:47:47.447Z,31.35
2023-04-07T13:50:17.043Z,29.27
2023-04-07T13:52:46.069Z,31.92
2023-04-07T13:55:15.158Z,30.65
2023-04-07T13:57:44.423Z,30.88
2023-04-07T14:00:14.212Z,30.23
2023-04-07T14:02:43.823Z,28.13
2023-04-07T14:05:12.866Z,29.67
2023-04-07T14:07:42.047Z,29.88
2023-04-07T14:10:11.168Z,29.23
2023-04-07T14:12:40.128Z,29.80
2023-04-07T14:15:09.824Z,29.13
2023-04-07T14:17:39.228Z,28.73
2023-04-07T14:20:08.980Z,29.13
2023-04-07T14:22:38.073Z,28.58
2023-04-07T14:25:07.608Z,28.83
2023-04-07T14:27:38.338Z,30.35
2023-04-07T14:30:08.189Z,30.08
2023-04-07T14:32:37.507Z,30.08
2023-04-07T14:35:06.843Z,28.08
2023-04-07T14:37:37.142Z,28.23
2023-04-07T14:40:07.190Z,27.83
2023-04-07T14:42:37.025Z,29.38
2023-04-07T14:45:06.318Z,30.05
2023-04-07T14:47:35.393Z,28.40
2023-04-07T14:50:05.036Z,28.13
2023-04-07T14:52:33.962Z,27.23
2023-04-07T14:55:03.372Z,28.55
2023-04-07T14:57:32.478Z,28.90
2023-04-07T15:00:01.615Z,29.20
2023-04-07T15:02:33.108Z,29.38
2023-04-07T15:05:02.294Z,28.10
2023-04-07T15:07:31.456Z,26.92
2023-04-07T15:10:01.398Z,28.50
2023-04-07T15:12:32.701Z,28.02
2023-04-07T15:15:01.690Z,27.55
2023-04-07T15:17:42.519Z,28.55
2023-04-07T15:20:14.014Z,29.98
2023-04-07T15:22:43.086Z,29.27
2023-04-07T15:25:12.315Z,30.38
2023-04-07T15:27:41.389Z,29.75
2023-04-07T15:30:10.817Z,31.50
2023-04-07T15:32:39.758Z,30.33
2023-04-07T15:35:09.107Z,29.23
2023-04-07T15:37:39.464Z,30.52
2023-04-07T15:40:09.157Z,30.20
2023-04-07T15:42:42.092Z,29.33
2023-04-07T15:45:11.757Z,30.90
2023-04-07T15:47:41.269Z,30.67
2023-04-07T15:50:11.127Z,29.50
2023-04-07T15:52:40.103Z,30.80
2023-04-07T15:55:09.311Z,28.70
2023-04-07T15:57:38.292Z,29.27
2023-04-07T16:00:07.902Z,29.50
2023-04-07T16:02:37.412Z,29.45
2023-04-07T16:05:06.762Z,29.88
2023-04-07T16:07:35.745Z,29.27
2023-04-07T16:10:05.297Z,28.23
2023-04-07T16:12:35.616Z,28.65
2023-04-07T16:15:05.048Z,30.25
2023-04-07T16:17:34.134Z,29.75
2023-04-07T16:20:03.190Z,29.10
2023-04-07T16:22:32.192Z,29.42
2023-04-07T16:25:01.274Z,29.30
2023-04-07T16:27:30.222Z,29.25
2023-04-07T16:29:59.206Z,28.05
2023-04-07T16:32:28.234Z,29.42
2023-04-07T16:34:57.172Z,29.40
2023-04-07T16:37:26.168Z,28.67
2023-04-07T16:39:59.326Z,29.60
2023-04-07T16:42:31.676Z,29.92
2023-04-07T16:45:02.824Z,30.10
2023-04-07T16:47:33.011Z,29.88
2023-04-07T16:50:02.033Z,28.90
2023-04-07T16:52:31.001Z,29.90
2023-04-07T16:55:00.736Z,28.05
2023-04-07T16:57:29.753Z,29.05
2023-04-07T16:59:58.744Z,29.35
2023-04-07T17:02:28.833Z,28.60
2023-04-07T17:04:57.960Z,29.10
2023-04-07T17:07:26.939Z,29.73
2023-04-07T17:09:56.006Z,29.75
2023-04-07T17:12:25.055Z,28.45
2023-04-07T17:14:54.054Z,27.27
2023-04-07T17:17:23.080Z,28.27
2023-04-07T17:19:52.164Z,27.77
2023-04-07T17:22:21.232Z,27.52
2023-04-07T17:24:50.223Z,27.70
2023-04-07T17:27:20.229Z,27.80
2023-04-07T17:29:49.219Z,27.67
2023-04-07T17:32:18.215Z,28.52
2023-04-07T17:34:47.614Z,27.40
2023-04-07T17:37:16.612Z,29.65
2023-04-07T17:39:45.648Z,27.83
2023-04-07T17:42:14.602Z,26.45
2023-04-07T17:44:44.153Z,26.98
2023-04-07T17:47:13.579Z,28.60
2023-04-07T17:49:43.323Z,26.52
2023-04-07T17:52:12.424Z,26.90
2023-04-07T17:54:41.399Z,25.58
2023-04-07T17:57:10.880Z,25.23
2023-04-07T17:59:40.056Z,28.35
2023-04-07T18:02:13.208Z,27.73
2023-04-07T18:04:42.476Z,29.20
2023-04-07T18:07:14.142Z,27.23
2023-04-07T18:09:44.174Z,26.35
2023-04-07T18:12:13.401Z,26.08
2023-04-07T18:14:42.929Z,27.27
2023-04-07T18:17:12.168Z,25.77
2023-04-07T18:19:41.674Z,26.58
2023-04-07T18:22:13.517Z,27.30
2023-04-07T18:24:42.475Z,27.25
2023-04-07T18:27:11.626Z,27.38
2023-04-07T18:29:40.618Z,27.13
2023-04-07T18:32:09.786Z,26.85
2023-04-07T18:34:38.810Z,25.40
2023-04-07T18:37:07.770Z,26.65
2023-04-07T18:39:37.092Z,26.15
2023-04-07T18:42:06.128Z,27.45
2023-04-07T18:44:35.087Z,27.55
2023-04-07T18:47:04.131Z,27.65
2023-04-07T18:49:33.132Z,25.42
2023-04-07T18:52:02.190Z,27.60
2023-04-07T18:54:31.616Z,27.15
2023-04-07T18:57:00.568Z,26.35
2023-04-07T18:59:29.634Z,26.42
2023-04-07T19:01:58.696Z,26.45
2023-04-07T19:04:27.761Z,26.00
2023-04-07T19:06:58.661Z,26.75
2023-04-07T19:09:27.695Z,26.25
2023-04-07T19:11:57.345Z,25.02
2023-04-07T19:14:26.628Z,26.02
2023-04-07T19:16:55.807Z,24.52
2023-04-07T19:19:24.756Z,25.85
2023-04-07T19:21:53.830Z,26.08
2023-04-07T19:24:22.834Z,23.73
2023-04-07T19:26:52.743Z,24.80
2023-04-07T19:29:21.712Z,25.35
2023-04-07T19:31:52.477Z,28.65
2023-04-07T19:34:21.603Z,27.10
2023-04-07T19:36:50.675Z,27.13
2023-04-07T19:39:19.608Z,28.13
2023-04-07T19:41:48.503Z,27.40
2023-04-07T19:44:19.338Z,25.88
2023-04-07T19:46:49.841Z,27.52
2023-04-07T19:49:19.223Z,25.45
2023-04-07T19:51:49.296Z,28.15
2023-04-07T19:54:18.789Z,27.30
2023-04-07T19:56:47.792Z,26.15
2023-04-07T19:59:16.809Z,24.23
2023-04-07T20:01:45.933Z,27.17
2023-04-07T20:04:14.994Z,23.88
2023-04-07T20:06:44.007Z,26.48
2023-04-07T20:09:13.133Z,23.98
2023-04-07T20:11:42.051Z,22.58
2023-04-07T20:14:11.048Z,21.48
2023-04-07T20:16:40.115Z,23.25
2023-04-07T20:19:09.118Z,22.83
2023-04-07T20:21:38.737Z,23.58
2023-04-07T20:24:12.361Z,22.15
2023-04-07T20:26:41.623Z,22.38
2023-04-07T20:29:10.730Z,22.95
2023-04-07T20:31:40.007Z,23.02
2023-04-07T20:34:09.968Z,22.48
2023-04-07T20:36:38.941Z,22.08
2023-04-07T20:39:08.162Z,22.88
2023-04-07T20:41:37.627Z,22.40
2023-04-07T20:44:06.708Z,24.17
2023-04-07T20:46:35.860Z,25.45
2023-04-07T20:49:06.416Z,25.27
2023-04-07T20:51:39.576Z,24.25
2023-04-07T20:54:09.245Z,24.10
2023-04-07T20:56:38.282Z,25.33
2023-04-07T20:59:07.456Z,21.88
2023-04-07T21:01:36.716Z,23.25
2023-04-07T21:04:06.080Z,21.95
2023-04-07T21:06:35.205Z,22.52
2023-04-07T21:09:06.774Z,25.50
2023-04-07T21:11:35.912Z,22.27
2023-04-07T21:14:05.618Z,22.73
2023-04-07T21:16:34.897Z,24.50
2023-04-07T21:19:04.679Z,23.50
2023-04-07T21:21:33.767Z,24.08
2023-04-07T21:24:02.797Z,23.23
2023-04-07T21:26:31.953Z,23.95
2023-04-07T21:29:01.067Z,23.70
2023-04-07T21:31:30.107Z,23.50
2023-04-07T21:33:59.129Z,23.27
2023-04-07T21:36:28.342Z,24.08
2023-04-07T21:38:57.512Z,23.75
2023-04-07T21:41:26.678Z,22.98
2023-04-07T21:43:55.729Z,24.20
2023-04-07T21:46:24.836Z,25.20
2023-04-07T21:48:54.085Z,23.30
2023-04-07T21:51:23.808Z,25.00
2023-04-07T21:53:53.529Z,23.15
2023-04-07T21:56:23.935Z,24.98
2023-04-07T21:58:53.247Z,22.98
2023-04-07T22:01:22.260Z,22.92
2023-04-07T22:03:51.911Z,23.00
2023-04-07T22:06:21.052Z,24.25
2023-04-07T22:09:00.606Z,25.30
2023-04-07T22:11:30.864Z,25.88
2023-04-07T22:14:00.153Z,24.60
2023-04-07T22:16:29.259Z,23.00
2023-04-07T22:18:58.300Z,24.27
2023-04-07T22:21:28.305Z,23.92
2023-04-07T22:23:57.249Z,23.98
2023-04-07T22:26:26.443Z,24.52
2023-04-07T22:28:55.371Z,23.30
2023-04-07T22:31:24.361Z,24.17
2023-04-07T22:33:53.343Z,24.70
2023-04-07T22:36:22.364Z,24.58
2023-04-07T22:38:51.336Z,24.77
2023-04-07T22:41:20.357Z,23.98
2023-04-07T22:43:49.422Z,24.17
2023-04-07T22:46:19.254Z,23.42
2023-04-07T22:48:48.665Z,23.25
2023-04-07T22:51:18.086Z,23.27
2023-04-07T22:53:47.535Z,24.67
2023-04-07T22:56:16.604Z,23.48
2023-04-07T22:58:45.601Z,25.08
2023-04-07T23:01:14.680Z,23.65
2023-04-07T23:03:43.880Z,22.05
2023-04-07T23:06:12.952Z,22.15
2023-04-07T23:08:41.980Z,23.45
2023-04-07T23:11:11.700Z,22.48
2023-04-07T23:13:40.754Z,22.58
2023-04-07T23:16:14.282Z,23.85
2023-04-07T23:18:44.000Z,22.98
2023-04-07T23:21:13.703Z,24.58
2023-04-07T23:23:43.176Z,24.27
2023-04-07T23:26:12.272Z,22.23
2023-04-07T23:28:41.220Z,22.40
2023-04-07T23:31:10.278Z,24.65
2023-04-07T23:33:39.352Z,23.30
2023-04-07T23:36:08.426Z,22.98
2023-04-07T23:38:37.605Z,25.10
2023-04-07T23:41:06.565Z,25.00
2023-04-07T23:43:35.833Z,26.42
2023-04-07T23:46:05.190Z,26.25
2023-04-07T23:48:34.197Z,23.83
2023-04-07T23:51:03.118Z,24.73
2023-04-07T23:53:32.105Z,25.60
2023-04-07T23:56:01.091Z,25.00
2023-04-07T23:58:30.129Z,24.77
